Terminal Aerodrome Forecast
Issued by NWS

Home | Current Version | Previous Version | Text Only | Print | Product List | Glossary Off
Versions: 1 2 3 4 5 6 7 8 9 10 11 12 13 14 15

783
FTUS43 KTOP 290520
TAFFOE
TAF
KFOE 290520Z 2906/3006 30006KT P6SM SKC
     FM291100 27005KT P6SM SCT200
     FM291400 31010KT P6SM SCT200
     FM291800 34010KT P6SM SCT250=

USA.gov is the U.S. government's official web portal to all federal, state and local government web resources and services.